Airfield :
LOGIN :

Register | Disclaimer

   EN    FR    IT 

 










Legend :    VFR   Marginal VFR   IFR   Intensive IFR   Very Intensive IFR
Visi :
Ceiling :
>= 8 km
>= 3000ft
5 to 8 km
1000 to 3000 ft
1500m to 5 km
500 to 1000 ft
800 to 1500m
200 to 500 ft
< 800m
< 200 ft
Symbols :   Thunderstorms  Fog  Heavy snow  Heavy precipitations  Wind > 20 kt
SIGMETs :     Misc.  Thunderstorms  Icing  Turbulence  Mountain Waves  Volcanic Ashes







- Airport Elevation : 141 ft
- IATA code : SKS


EKSP - Srydstrup Vojens

CURRENT METAR :
  • 211520Z 27004KT 240V300 CAVOK 20/13 Q1019 RMK FEW230

EXPIRED METARs :
  • 211450Z 27004KT 220V300 CAVOK 20/13 Q1019 RMK FEW230
  • 211420Z 26005KT 220V330 CAVOK 20/13 Q1020 RMK FEW230
  • 211350Z 30002KT CAVOK 20/13 Q1020 RMK FEW230
  • 211320Z 29005KT 260V340 CAVOK 19/12 Q1020 RMK FEW230
  • 211250Z 28007KT 250V310 CAVOK 19/13 Q1021 RMK FEW230

TAF TAF EKSP
Valid from the 21 at 15:00 until the 22 at 15:00 UTC


211423Z 2115/2215 27005KT 9999 FEW200
BECMG 2118/2120 VRB05KT
TEMPO 2120/2203 0500 FG BKN002
BECMG 2200/2203 14008KT
No reported NOTAMs for that airfield.



MET'MAP, your aeronautical weather chart ! - Copyright ORBIFLY December 2007 - Disclaimer

ORBIFLY MET'MAP TEAM :

Programming & Development : Alexandra Zaïnal
Concept & Development : Baudouin d'Aumeries
Co-Development & Prog : Marc-Olivier Méhu
Technical & hardware support : Manuel Goepfert

Contact : metmap@orbifly.com




SOURCES & CREDITS :

   NOAA